createdAt,value
2022-12-04T00:01:58.508Z,82.89
2022-12-04T00:04:25.136Z,82.91
2022-12-04T00:06:58.621Z,82.40
2022-12-04T00:09:25.694Z,82.62
2022-12-04T00:11:52.136Z,82.55
2022-12-04T00:14:19.100Z,82.50
2022-12-04T00:16:45.842Z,83.00
2022-12-04T00:19:12.429Z,82.84
2022-12-04T00:21:38.982Z,82.87
2022-12-04T00:24:05.969Z,82.62
2022-12-04T00:26:32.502Z,82.98
2022-12-04T00:28:59.098Z,83.11
2022-12-04T00:31:28.214Z,82.49
2022-12-04T00:33:55.416Z,82.52
2022-12-04T00:36:24.598Z,82.79
2022-12-04T00:38:51.899Z,82.70
2022-12-04T00:41:21.159Z,83.16
2022-12-04T00:43:47.780Z,83.33
2022-12-04T00:46:15.457Z,82.96
2022-12-04T00:48:42.885Z,83.67
2022-12-04T00:51:15.874Z,83.23
2022-12-04T00:53:42.884Z,83.38
2022-12-04T00:56:15.012Z,83.42
2022-12-04T00:58:42.782Z,82.90
2022-12-04T01:01:15.798Z,82.79
2022-12-04T01:03:43.387Z,83.39
2022-12-04T01:06:20.828Z,83.33
2022-12-04T01:08:48.112Z,83.56
2022-12-04T01:11:14.547Z,83.37
2022-12-04T01:13:40.947Z,83.40
2022-12-04T01:16:07.738Z,83.60
2022-12-04T01:18:34.347Z,83.94
2022-12-04T01:21:00.812Z,83.74
2022-12-04T01:23:27.222Z,83.59
2022-12-04T01:25:56.003Z,84.06
2022-12-04T01:28:23.002Z,83.67
2022-12-04T01:31:03.189Z,83.86
2022-12-04T01:33:30.250Z,83.30
2022-12-04T01:35:59.181Z,83.49
2022-12-04T01:38:26.188Z,83.81
2022-12-04T01:40:53.230Z,83.60
2022-12-04T01:43:20.178Z,83.91
2022-12-04T01:45:51.471Z,83.81
2022-12-04T01:48:32.019Z,84.20
2022-12-04T01:51:26.814Z,83.94
2022-12-04T01:53:57.423Z,83.55
2022-12-04T01:56:31.616Z,83.61
2022-12-04T01:59:01.573Z,83.38
2022-12-04T02:01:31.910Z,84.05
2022-12-04T02:04:02.212Z,83.95
2022-12-04T02:06:28.608Z,84.05
2022-12-04T02:08:55.304Z,83.52
2022-12-04T02:11:46.562Z,84.07
2022-12-04T02:14:44.399Z,83.75
2022-12-04T02:17:18.936Z,83.98
2022-12-04T02:20:09.596Z,83.55
2022-12-04T02:22:35.933Z,83.74
2022-12-04T02:25:21.467Z,83.59
2022-12-04T02:27:54.116Z,83.52
2022-12-04T02:30:20.753Z,83.92
2022-12-04T02:32:59.776Z,83.84
2022-12-04T02:35:40.642Z,83.73
2022-12-04T02:38:13.919Z,83.69
2022-12-04T02:40:56.506Z,83.95
2022-12-04T02:43:37.912Z,83.73
2022-12-04T02:46:13.662Z,83.56
2022-12-04T02:48:43.911Z,83.55
2022-12-04T02:51:14.807Z,83.79
2022-12-04T02:53:47.371Z,84.36
2022-12-04T02:56:22.813Z,84.14
2022-12-04T02:59:00.004Z,83.49
2022-12-04T03:01:32.390Z,83.90
2022-12-04T03:04:08.462Z,83.52
2022-12-04T03:06:39.286Z,83.84
2022-12-04T03:09:15.827Z,84.25
2022-12-04T03:11:49.917Z,84.18
2022-12-04T03:14:25.566Z,83.87
2022-12-04T03:16:57.341Z,84.42
2022-12-04T03:19:28.243Z,84.42
2022-12-04T03:22:00.011Z,84.57
2022-12-04T03:24:34.163Z,84.62
2022-12-04T03:27:03.656Z,84.35
2022-12-04T03:29:42.913Z,84.50
2022-12-04T03:32:15.871Z,84.19
2022-12-04T03:34:58.894Z,84.15
2022-12-04T03:37:49.522Z,84.28
2022-12-04T03:40:28.793Z,84.02
2022-12-04T03:43:01.834Z,84.69
2022-12-04T03:45:39.193Z,84.63
2022-12-04T03:48:16.764Z,84.48
2022-12-04T03:51:17.879Z,84.52
2022-12-04T03:54:05.082Z,84.66
2022-12-04T03:56:38.641Z,84.28
2022-12-04T03:59:11.118Z,84.39
2022-12-04T04:01:43.176Z,84.55
2022-12-04T04:04:14.725Z,84.82
2022-12-04T04:06:47.228Z,84.60
2022-12-04T04:09:19.143Z,84.43
2022-12-04T04:11:54.835Z,84.59
2022-12-04T04:14:49.638Z,84.38
2022-12-04T04:17:39.144Z,84.42
2022-12-04T04:20:35.445Z,84.89
2022-12-04T04:23:24.292Z,84.64
2022-12-04T04:25:53.476Z,84.47
2022-12-04T04:28:28.669Z,85.15
2022-12-04T04:31:12.160Z,84.70
2022-12-04T04:33:49.179Z,84.29
2022-12-04T04:36:43.334Z,84.99
2022-12-04T04:39:36.307Z,84.46
2022-12-04T04:42:06.626Z,85.22
2022-12-04T04:45:05.426Z,84.78
2022-12-04T04:47:46.129Z,84.71
2022-12-04T04:50:15.094Z,85.11
2022-12-04T04:52:47.003Z,84.80
2022-12-04T04:55:14.932Z,85.05
2022-12-04T04:57:41.456Z,84.79
2022-12-04T05:00:11.912Z,85.18
2022-12-04T05:02:38.462Z,85.34
2022-12-04T05:05:05.841Z,85.44
2022-12-04T05:07:32.335Z,84.97
2022-12-04T05:09:59.270Z,84.97
2022-12-04T05:12:25.912Z,85.36
2022-12-04T05:14:52.583Z,85.58
2022-12-04T05:17:19.466Z,85.79
2022-12-04T05:19:56.227Z,85.34
2022-12-04T05:22:26.717Z,85.45
2022-12-04T05:24:54.177Z,85.55
2022-12-04T05:27:21.723Z,85.15
2022-12-04T05:29:48.860Z,85.48
2022-12-04T05:32:15.727Z,85.09
2022-12-04T05:34:42.426Z,85.53
2022-12-04T05:37:08.895Z,85.22
2022-12-04T05:39:35.671Z,85.21
2022-12-04T05:42:02.089Z,85.32
2022-12-04T05:44:28.464Z,85.61
2022-12-04T05:46:54.980Z,85.52
2022-12-04T05:49:21.498Z,85.16
2022-12-04T05:51:50.577Z,85.26
2022-12-04T05:54:18.954Z,85.37
2022-12-04T05:56:45.827Z,85.47
2022-12-04T05:59:12.956Z,84.83
2022-12-04T06:01:39.845Z,85.52
2022-12-04T06:04:06.399Z,85.64
2022-12-04T06:06:32.921Z,85.60
2022-12-04T06:09:00.092Z,85.40
2022-12-04T06:11:34.822Z,85.28
2022-12-04T06:14:04.169Z,85.04
2022-12-04T06:16:36.414Z,85.61
2022-12-04T06:19:06.899Z,85.41
2022-12-04T06:21:35.391Z,85.52
2022-12-04T06:24:02.374Z,84.79
2022-12-04T06:26:29.027Z,85.55
2022-12-04T06:28:56.864Z,85.14
2022-12-04T06:31:24.187Z,85.23
2022-12-04T06:33:51.123Z,85.64
2022-12-04T06:36:21.093Z,85.05
2022-12-04T06:38:49.220Z,85.59
2022-12-04T06:41:17.875Z,85.24
2022-12-04T06:43:44.744Z,85.56
2022-12-04T06:46:18.747Z,84.80
2022-12-04T06:48:45.578Z,85.18
2022-12-04T06:51:17.532Z,85.49
2022-12-04T06:53:44.726Z,85.34
2022-12-04T06:56:16.247Z,85.65
2022-12-04T06:58:42.741Z,85.20
2022-12-04T07:01:12.141Z,85.59
2022-12-04T07:03:39.549Z,85.30
2022-12-04T07:06:12.077Z,85.06
2022-12-04T07:08:38.599Z,84.88
2022-12-04T07:11:05.539Z,84.94
2022-12-04T07:13:31.915Z,85.21
2022-12-04T07:16:03.032Z,85.67
2022-12-04T07:18:31.070Z,85.17
2022-12-04T07:20:57.912Z,85.82
2022-12-04T07:23:24.469Z,85.25
2022-12-04T07:25:51.039Z,85.54
2022-12-04T07:28:17.543Z,85.31
2022-12-04T07:30:44.611Z,85.28
2022-12-04T07:33:11.084Z,85.26
2022-12-04T07:35:37.505Z,84.97
2022-12-04T07:38:03.907Z,84.96
2022-12-04T07:40:30.816Z,85.31
2022-12-04T07:42:57.299Z,85.96
2022-12-04T07:45:23.841Z,85.95
2022-12-04T07:47:50.230Z,85.44
2022-12-04T07:50:16.814Z,85.40
2022-12-04T07:52:43.281Z,85.73
2022-12-04T07:55:09.868Z,85.48
2022-12-04T07:57:36.444Z,85.61
2022-12-04T08:00:03.809Z,86.09
2022-12-04T08:02:38.310Z,85.79
2022-12-04T08:05:05.102Z,85.29
2022-12-04T08:07:32.261Z,85.78
2022-12-04T08:09:58.814Z,85.38
2022-12-04T08:12:25.310Z,85.97
2022-12-04T08:14:51.774Z,85.43
2022-12-04T08:17:18.361Z,85.44
2022-12-04T08:19:44.825Z,85.83
2022-12-04T08:22:11.313Z,86.05
2022-12-04T08:24:37.785Z,85.57
2022-12-04T08:27:04.483Z,85.78
2022-12-04T08:29:30.926Z,85.16
2022-12-04T08:31:57.385Z,85.60
2022-12-04T08:34:23.900Z,85.35
2022-12-04T08:36:50.452Z,85.40
2022-12-04T08:39:16.910Z,85.41
2022-12-04T08:41:43.413Z,85.37
2022-12-04T08:44:10.243Z,85.54
2022-12-04T08:46:37.019Z,85.53
2022-12-04T08:49:03.565Z,85.93
2022-12-04T08:51:32.274Z,85.68
2022-12-04T08:54:01.918Z,85.46
2022-12-04T08:56:30.637Z,85.35
2022-12-04T08:58:57.679Z,85.57
2022-12-04T09:01:25.718Z,85.60
2022-12-04T09:03:52.766Z,85.64
2022-12-04T09:06:19.705Z,86.29
2022-12-04T09:08:46.698Z,85.79
2022-12-04T09:11:16.873Z,86.29
2022-12-04T09:13:44.571Z,86.32
2022-12-04T09:16:14.762Z,86.46
2022-12-04T09:18:41.400Z,86.22
2022-12-04T09:21:11.553Z,86.82
2022-12-04T09:23:39.395Z,87.05
2022-12-04T09:26:15.302Z,86.50
2022-12-04T09:28:41.716Z,87.24
2022-12-04T09:31:08.220Z,87.24
2022-12-04T09:33:34.744Z,86.84
2022-12-04T09:36:02.845Z,87.13
2022-12-04T09:38:30.388Z,87.00
2022-12-04T09:41:30.052Z,87.30
2022-12-04T09:44:10.440Z,87.28
2022-12-04T09:46:45.495Z,87.47
2022-12-04T09:49:17.121Z,87.91
2022-12-04T09:51:43.903Z,87.90
2022-12-04T09:54:18.514Z,88.20
2022-12-04T09:56:53.448Z,88.38
2022-12-04T09:59:25.448Z,87.92
2022-12-04T10:01:58.633Z,87.38
2022-12-04T10:04:25.545Z,88.15
2022-12-04T10:07:10.995Z,87.63
2022-12-04T10:09:55.135Z,87.35
2022-12-04T10:12:44.760Z,87.33
2022-12-04T10:15:29.617Z,87.18
2022-12-04T10:18:23.860Z,87.05
2022-12-04T10:21:04.771Z,87.60
2022-12-04T10:23:40.711Z,86.60
2022-12-04T10:26:16.959Z,86.72
2022-12-04T10:28:55.745Z,86.55
2022-12-04T10:31:24.535Z,86.28
2022-12-04T10:33:55.755Z,85.98
2022-12-04T10:36:28.082Z,86.18
2022-12-04T10:39:14.182Z,85.35
2022-12-04T10:41:52.254Z,85.07
2022-12-04T10:44:22.032Z,85.40
2022-12-04T10:46:50.995Z,84.71
2022-12-04T10:49:22.788Z,84.59
2022-12-04T10:51:49.600Z,84.59
2022-12-04T10:54:26.950Z,84.44
2022-12-04T10:57:08.220Z,85.11
2022-12-04T10:59:35.477Z,84.39
2022-12-04T11:02:22.524Z,85.08
2022-12-04T11:05:01.308Z,85.07
2022-12-04T11:07:31.894Z,84.60
2022-12-04T11:10:03.337Z,84.50
2022-12-04T11:12:32.112Z,84.54
2022-12-04T11:15:12.350Z,84.13
2022-12-04T11:17:39.231Z,84.11
2022-12-04T11:20:09.414Z,84.92
2022-12-04T11:22:48.070Z,84.54
2022-12-04T11:25:18.861Z,84.32
2022-12-04T11:27:55.719Z,83.99
2022-12-04T11:30:29.571Z,84.47
2022-12-04T11:32:57.152Z,83.78
2022-12-04T11:35:26.118Z,84.30
2022-12-04T11:37:59.160Z,84.00
2022-12-04T11:40:26.918Z,84.32
2022-12-04T11:43:25.268Z,84.44
2022-12-04T11:46:00.157Z,83.67
2022-12-04T11:48:29.113Z,83.97
2022-12-04T11:51:21.456Z,83.55
2022-12-04T11:53:55.715Z,83.71
2022-12-04T11:56:46.188Z,83.45
2022-12-04T11:59:12.650Z,83.47
2022-12-04T12:02:11.194Z,83.55
2022-12-04T12:04:49.895Z,83.48
2022-12-04T12:07:41.287Z,83.84
2022-12-04T12:10:17.435Z,83.51
2022-12-04T12:13:03.543Z,83.54
2022-12-04T12:15:48.746Z,82.96
2022-12-04T12:18:40.957Z,83.77
2022-12-04T12:21:14.426Z,83.33
2022-12-04T12:24:08.541Z,83.59
2022-12-04T12:27:02.839Z,83.17
2022-12-04T12:29:48.205Z,82.95
2022-12-04T12:32:40.112Z,82.68
2022-12-04T12:35:29.901Z,83.46
2022-12-04T12:38:01.501Z,83.19
2022-12-04T12:40:44.740Z,82.91
2022-12-04T12:43:31.825Z,82.95
2022-12-04T12:46:27.585Z,82.57
2022-12-04T12:49:06.406Z,83.21
2022-12-04T12:51:58.458Z,83.35
2022-12-04T12:54:53.406Z,83.09
2022-12-04T12:57:37.587Z,83.19
2022-12-04T13:00:15.573Z,83.38
2022-12-04T13:03:04.029Z,82.94
2022-12-04T13:05:37.264Z,83.75
2022-12-04T13:08:27.675Z,83.41
2022-12-04T13:11:13.463Z,82.96
2022-12-04T13:14:00.927Z,83.02
2022-12-04T13:16:40.642Z,83.27
2022-12-04T13:19:07.104Z,82.87
2022-12-04T13:21:37.438Z,83.28
2022-12-04T13:24:37.659Z,82.70
2022-12-04T13:27:34.701Z,83.22
2022-12-04T13:30:09.842Z,83.32
2022-12-04T13:32:57.696Z,82.75
2022-12-04T13:36:01.979Z,83.62
2022-12-04T13:38:49.911Z,83.41
2022-12-04T13:41:23.958Z,83.43
2022-12-04T13:43:53.030Z,83.58
2022-12-04T13:46:31.366Z,83.57
2022-12-04T13:49:08.613Z,82.96
2022-12-04T13:51:39.051Z,83.88
2022-12-04T13:54:11.759Z,83.47
2022-12-04T13:56:40.671Z,83.42
2022-12-04T13:59:36.097Z,83.67
2022-12-04T14:02:21.303Z,83.83
2022-12-04T14:05:01.873Z,83.45
2022-12-04T14:07:38.811Z,84.06
2022-12-04T14:10:07.587Z,83.42
2022-12-04T14:12:39.049Z,83.86
2022-12-04T14:15:38.994Z,83.34
2022-12-04T14:18:28.200Z,83.49
2022-12-04T14:21:05.424Z,83.89
2022-12-04T14:23:41.014Z,83.35
2022-12-04T14:26:21.975Z,84.38
2022-12-04T14:28:48.879Z,83.76
2022-12-04T14:31:24.037Z,83.81
2022-12-04T14:33:56.180Z,83.96
2022-12-04T14:36:33.352Z,83.69
2022-12-04T14:39:24.288Z,83.89
2022-12-04T14:41:52.173Z,84.33
2022-12-04T14:44:27.347Z,84.07
2022-12-04T14:46:57.541Z,84.39
2022-12-04T14:50:01.382Z,84.08
2022-12-04T14:53:09.272Z,85.05
2022-12-04T14:56:07.434Z,85.05
2022-12-04T14:58:37.665Z,84.72
2022-12-04T15:01:15.993Z,84.74
2022-12-04T15:03:45.919Z,84.68
2022-12-04T15:06:21.595Z,85.29
2022-12-04T15:09:19.076Z,84.43
2022-12-04T15:12:08.934Z,84.28
2022-12-04T15:14:51.323Z,85.10
2022-12-04T15:17:18.777Z,85.05
2022-12-04T15:19:45.779Z,85.05
2022-12-04T15:22:20.599Z,84.87
2022-12-04T15:24:47.054Z,85.45
2022-12-04T15:27:16.681Z,85.14
2022-12-04T15:29:48.229Z,85.65
2022-12-04T15:32:17.406Z,85.95
2022-12-04T15:34:48.872Z,85.71
2022-12-04T15:37:28.614Z,85.34
2022-12-04T15:39:56.502Z,84.83
2022-12-04T15:42:27.290Z,85.71
2022-12-04T15:45:01.185Z,84.96
2022-12-04T15:47:49.903Z,85.86
2022-12-04T15:50:16.375Z,84.95
2022-12-04T15:53:14.721Z,85.52
2022-12-04T15:55:56.872Z,86.02
2022-12-04T15:58:28.159Z,85.48
2022-12-04T16:01:05.627Z,85.10
2022-12-04T16:03:38.757Z,85.58
2022-12-04T16:06:29.742Z,85.30
2022-12-04T16:09:01.343Z,85.41
2022-12-04T16:11:37.246Z,85.79
2022-12-04T16:14:09.471Z,85.96
2022-12-04T16:16:38.421Z,86.01
2022-12-04T16:19:35.285Z,84.91
2022-12-04T16:22:03.660Z,85.33
2022-12-04T16:24:30.716Z,85.10
2022-12-04T16:27:00.081Z,85.59
2022-12-04T16:29:26.576Z,85.60
2022-12-04T16:31:55.158Z,84.91
2022-12-04T16:34:26.074Z,85.81
2022-12-04T16:36:52.506Z,85.12
2022-12-04T16:39:18.977Z,85.35
2022-12-04T16:41:45.442Z,85.25
2022-12-04T16:44:15.511Z,85.18
2022-12-04T16:46:42.748Z,84.90
2022-12-04T16:49:12.860Z,85.44
2022-12-04T16:51:43.630Z,85.65
2022-12-04T16:54:12.105Z,85.50
2022-12-04T16:56:39.067Z,85.44
2022-12-04T16:59:11.593Z,85.66
2022-12-04T17:01:47.772Z,85.66
2022-12-04T17:04:15.916Z,85.40
2022-12-04T17:06:42.558Z,85.05
2022-12-04T17:09:09.639Z,85.06
2022-12-04T17:11:37.048Z,85.69
2022-12-04T17:14:07.380Z,85.25
2022-12-04T17:16:38.481Z,85.69
2022-12-04T17:19:05.157Z,85.66
2022-12-04T17:21:33.688Z,85.23
2022-12-04T17:24:01.010Z,84.94
2022-12-04T17:26:28.235Z,84.71
2022-12-04T17:28:54.673Z,85.43
2022-12-04T17:31:23.924Z,84.98
2022-12-04T17:33:50.864Z,85.15
2022-12-04T17:36:20.162Z,85.17
2022-12-04T17:38:47.116Z,85.58
2022-12-04T17:41:15.063Z,84.42
2022-12-04T17:43:43.528Z,85.26
2022-12-04T17:46:12.008Z,84.86
2022-12-04T17:48:38.928Z,85.20
2022-12-04T17:51:08.109Z,85.13
2022-12-04T17:53:35.126Z,84.57
2022-12-04T17:56:13.147Z,84.78
2022-12-04T17:58:40.207Z,84.86
2022-12-04T18:01:13.805Z,85.01
2022-12-04T18:03:41.374Z,85.39
2022-12-04T18:06:13.329Z,84.81
2022-12-04T18:08:55.081Z,85.37
2022-12-04T18:11:23.788Z,85.40
2022-12-04T18:13:56.209Z,85.55
2022-12-04T18:16:22.901Z,85.17
2022-12-04T18:18:50.807Z,85.19
2022-12-04T18:21:17.368Z,85.65
2022-12-04T18:23:46.396Z,85.62
2022-12-04T18:26:16.093Z,85.82
2022-12-04T18:28:43.407Z,85.92
2022-12-04T18:31:09.986Z,86.57
2022-12-04T18:33:38.918Z,86.04
2022-12-04T18:36:06.796Z,86.65
2022-12-04T18:38:33.226Z,87.28
2022-12-04T18:41:06.919Z,87.06
2022-12-04T18:43:45.155Z,87.25
2022-12-04T18:46:13.983Z,87.95
2022-12-04T18:48:42.763Z,87.50
2022-12-04T18:51:15.962Z,88.42
2022-12-04T18:53:43.251Z,88.21
2022-12-04T18:56:09.911Z,87.85
2022-12-04T18:58:36.457Z,88.70
2022-12-04T19:01:11.335Z,88.24
2022-12-04T19:03:38.312Z,88.97
2022-12-04T19:06:05.313Z,89.08
2022-12-04T19:08:34.346Z,89.30
2022-12-04T19:11:07.162Z,89.25
2022-12-04T19:13:34.146Z,89.67
2022-12-04T19:16:00.910Z,89.91
2022-12-04T19:18:27.575Z,89.99
2022-12-04T19:20:54.366Z,89.54
2022-12-04T19:23:22.791Z,90.39
2022-12-04T19:26:02.712Z,89.99
2022-12-04T19:28:29.907Z,90.25
2022-12-04T19:30:56.666Z,89.85
2022-12-04T19:33:24.109Z,90.24
2022-12-04T19:35:59.404Z,90.43
2022-12-04T19:38:26.891Z,90.83
2022-12-04T19:41:10.175Z,90.45
2022-12-04T19:43:38.599Z,90.46
2022-12-04T19:46:07.015Z,90.46
2022-12-04T19:48:33.990Z,90.81
2022-12-04T19:51:12.087Z,91.01
2022-12-04T19:53:41.156Z,90.66
2022-12-04T19:56:11.554Z,90.35
2022-12-04T19:58:38.937Z,90.77
2022-12-04T20:01:07.806Z,90.16
2022-12-04T20:03:35.634Z,90.92
2022-12-04T20:06:07.833Z,90.76
2022-12-04T20:08:35.374Z,90.71
2022-12-04T20:11:05.712Z,91.15
2022-12-04T20:13:35.505Z,90.71
2022-12-04T20:16:05.154Z,90.65
2022-12-04T20:18:32.032Z,90.08
2022-12-04T20:21:00.779Z,90.79
2022-12-04T20:23:54.265Z,90.69
2022-12-04T20:26:26.318Z,90.59
2022-12-04T20:28:55.771Z,90.88
2022-12-04T20:31:28.823Z,90.60
2022-12-04T20:33:58.399Z,91.24
2022-12-04T20:36:27.741Z,90.83
2022-12-04T20:38:55.372Z,90.53
2022-12-04T20:41:22.632Z,90.32
2022-12-04T20:43:49.297Z,90.72
2022-12-04T20:46:24.903Z,90.87
2022-12-04T20:48:53.384Z,90.52
2022-12-04T20:51:23.489Z,90.63
2022-12-04T20:53:50.839Z,90.80
2022-12-04T20:56:19.139Z,90.50
2022-12-04T20:58:45.899Z,90.54
2022-12-04T21:01:15.636Z,91.03
2022-12-04T21:03:43.124Z,90.93
2022-12-04T21:06:19.669Z,90.41
2022-12-04T21:08:53.300Z,90.80
2022-12-04T21:11:20.820Z,90.32
2022-12-04T21:14:05.973Z,90.95
2022-12-04T21:16:32.861Z,90.71
2022-12-04T21:18:59.338Z,90.51
2022-12-04T21:21:26.823Z,90.34
2022-12-04T21:23:53.390Z,90.89
2022-12-04T21:26:20.574Z,90.89
2022-12-04T21:28:47.515Z,90.49
2022-12-04T21:31:14.555Z,90.55
2022-12-04T21:33:41.038Z,90.86
2022-12-04T21:36:09.437Z,90.82
2022-12-04T21:38:37.995Z,90.26
2022-12-04T21:41:06.604Z,90.31
2022-12-04T21:43:34.068Z,90.34
2022-12-04T21:46:09.347Z,90.12
2022-12-04T21:48:36.421Z,90.45
2022-12-04T21:51:21.271Z,90.73
2022-12-04T21:53:54.751Z,90.86
2022-12-04T21:56:22.504Z,90.68
2022-12-04T21:58:49.307Z,90.34
2022-12-04T22:01:17.486Z,90.54
2022-12-04T22:03:44.656Z,90.94
2022-12-04T22:06:11.219Z,91.00
2022-12-04T22:08:39.888Z,90.39
2022-12-04T22:11:08.807Z,91.13
2022-12-04T22:13:36.535Z,91.05
2022-12-04T22:16:04.848Z,90.55
2022-12-04T22:18:31.722Z,90.76
2022-12-04T22:20:58.170Z,91.02
2022-12-04T22:23:24.611Z,91.06
2022-12-04T22:25:51.279Z,90.65
2022-12-04T22:28:18.344Z,90.78
2022-12-04T22:30:44.738Z,90.45
2022-12-04T22:33:11.246Z,90.58
2022-12-04T22:35:37.701Z,90.40
2022-12-04T22:38:04.117Z,90.52
2022-12-04T22:40:30.558Z,90.81
2022-12-04T22:42:56.926Z,90.86
2022-12-04T22:45:23.367Z,90.89
2022-12-04T22:47:49.758Z,90.82
2022-12-04T22:50:16.192Z,90.54
2022-12-04T22:52:42.817Z,90.87
2022-12-04T22:55:09.418Z,90.67
2022-12-04T22:57:36.003Z,90.34
2022-12-04T23:00:02.564Z,90.42
2022-12-04T23:02:29.062Z,90.58
2022-12-04T23:04:55.554Z,90.39
2022-12-04T23:07:22.203Z,90.58
2022-12-04T23:09:48.609Z,90.63
2022-12-04T23:12:15.634Z,90.34
2022-12-04T23:14:42.120Z,90.68
2022-12-04T23:17:08.601Z,89.97
2022-12-04T23:19:35.194Z,90.15
2022-12-04T23:22:01.690Z,90.13
2022-12-04T23:24:28.736Z,90.10
2022-12-04T23:26:55.318Z,89.97
2022-12-04T23:29:52.861Z,90.07
2022-12-04T23:32:08.142Z,90.17
2022-12-04T23:34:34.576Z,89.84
2022-12-04T23:37:00.957Z,90.44
2022-12-04T23:39:27.419Z,90.08
2022-12-04T23:41:53.878Z,90.00
2022-12-04T23:44:20.306Z,89.64
2022-12-04T23:46:46.844Z,89.97
2022-12-04T23:49:13.650Z,89.66
2022-12-04T23:51:40.110Z,89.60
2022-12-04T23:54:06.671Z,89.24
2022-12-04T23:56:33.116Z,89.53
2022-12-04T23:58:59.772Z,89.35
